Startpagina
METAR-TAF:

METAR-TAF

Vliegvelden :

Flughafen Hannover-Langenhagen

Hannover, Duitsland

breedte: 52-28N, lengte: 009-41E, hoogte: 56 m

Actueel weer

Dit bericht is 31 minuten geleden gemaakt, om 11:50 UTC
Wind 7 kt uit het oosten, variërend tussen het noordoosten en het zuiden
Temperatuur 21°C
Vochtigheid 30%
Druk 1022 hPa
Zicht 10 km of meer
geen wolken onder 1500 m en geen cumulonimbus

METAR: EDDV 211150Z 10007KT 050V170 CAVOK 21/03 Q1022 NOSIG

Tijdstip: 14:21 (12:21 UTC)

Verwachting

Dit bericht is 1 uur en het 21 minuten geleden gemaakt, om 11:00 UTC
Verwachting geldig van 21 om 12 UTC tot 22 om 12 UTC
Wind 7 kt uit het oosten
Zicht 10 km of meer
geen wolken onder 1500 m en geen cumulonimbus
Wijzigt naar
van 22 om 07 UTC tot 22 om 09 UTC
Wind 12 kt uit het oosten
Wijzigt naar
van 22 om 10 UTC tot 22 om 12 UTC
Wind 15 kt uit het oosten met uitschieters tot 25 kt

TAF: EDDV 211100Z 2112/2212 10007KT CAVOK BECMG 2207/2209 10012KT BECMG 2210/2212 10015G25KT

Waarnemingen en weersverwachtingen van meer dan 4000 vliegvelden (METAR en TAF).

De beschikbare stations zijn de gele en rode punten op de kaart.

Ga met uw muis naar het station om de naam te zien.

Klik dan om waarnemingen en weersverwachtingen te zien.

kaart wijzigen: klik op de groene knoppen met een zwart kruis om in te zoomen, op de groene knop met een streepje om uit te zoomen of op de groene pijlen voor aangrenzende kaarten.


METAR-TAF: